createdAt,value
2023-01-09T00:00:00.360Z,95.1
2023-01-09T00:01:00.353Z,95.4
2023-01-09T00:02:00.366Z,95.1
2023-01-09T00:03:00.352Z,95.1
2023-01-09T00:04:00.400Z,95.1
2023-01-09T00:05:00.383Z,95.1
2023-01-09T00:06:00.353Z,95.1
2023-01-09T00:07:00.361Z,95.1
2023-01-09T00:08:00.359Z,95.1
2023-01-09T00:09:00.376Z,95.1
2023-01-09T00:10:00.353Z,95.1
2023-01-09T00:11:00.357Z,95.4
2023-01-09T00:12:00.372Z,95.1
2023-01-09T00:13:00.357Z,95.4
2023-01-09T00:14:00.376Z,95.4
2023-01-09T00:15:00.374Z,95.5
2023-01-09T00:16:00.354Z,95.1
2023-01-09T00:17:00.416Z,95.1
2023-01-09T00:18:00.366Z,95.4
2023-01-09T00:19:00.407Z,95.4
2023-01-09T00:20:00.386Z,95.4
2023-01-09T00:21:00.382Z,95.4
2023-01-09T00:22:00.414Z,95.5
2023-01-09T00:23:00.374Z,95.4
2023-01-09T00:24:00.364Z,95.5
2023-01-09T00:25:00.371Z,95.4
2023-01-09T00:26:00.385Z,95.7
2023-01-09T00:27:00.387Z,95.4
2023-01-09T00:28:00.399Z,95.4
2023-01-09T00:29:00.378Z,95.7
2023-01-09T00:30:00.367Z,95.8
2023-01-09T00:31:00.527Z,95.7
2023-01-09T00:32:00.515Z,95.8
2023-01-09T00:33:00.385Z,95.8
2023-01-09T00:34:00.398Z,95.7
2023-01-09T00:35:00.379Z,95.7
2023-01-09T00:36:00.417Z,95.8
2023-01-09T00:37:00.400Z,95.8
2023-01-09T00:38:00.387Z,95.8
2023-01-09T00:39:00.416Z,95.8
2023-01-09T00:40:00.386Z,95.8
2023-01-09T00:41:00.394Z,95.8
2023-01-09T00:42:00.399Z,95.8
2023-01-09T00:43:00.385Z,95.8
2023-01-09T00:44:00.385Z,95.8
2023-01-09T00:45:00.411Z,95.8
2023-01-09T00:46:01.387Z,95.8
2023-01-09T00:47:00.403Z,96.1
2023-01-09T00:48:00.385Z,96.1
2023-01-09T00:49:00.416Z,95.8
2023-01-09T00:50:00.416Z,96.1
2023-01-09T00:51:00.413Z,96.1
2023-01-09T00:52:00.411Z,96.1
2023-01-09T00:53:00.396Z,96.1
2023-01-09T00:54:00.395Z,95.8
2023-01-09T00:55:00.414Z,96.1
2023-01-09T00:56:00.425Z,96.1
2023-01-09T00:57:00.403Z,96.1
2023-01-09T00:58:00.422Z,96.1
2023-01-09T00:59:00.411Z,96.1
2023-01-09T01:00:00.422Z,96.1
2023-01-09T01:01:00.589Z,95.8
2023-01-09T01:02:00.604Z,96
2023-01-09T01:03:00.470Z,96.1
2023-01-09T01:04:00.432Z,96.1
2023-01-09T01:05:00.430Z,96.1
2023-01-09T01:06:00.435Z,96.4
2023-01-09T01:07:00.410Z,96.4
2023-01-09T01:08:00.434Z,96.4
2023-01-09T01:09:00.408Z,96.4
2023-01-09T01:10:00.420Z,96.4
2023-01-09T01:11:00.413Z,96.4
2023-01-09T01:12:00.418Z,96.4
2023-01-09T01:13:00.439Z,96.4
2023-01-09T01:14:00.443Z,96.4
2023-01-09T01:15:00.416Z,96.4
2023-01-09T01:16:00.429Z,96.4
2023-01-09T01:17:00.492Z,96.4
2023-01-09T01:18:00.443Z,96.4
2023-01-09T01:19:00.438Z,96.4
2023-01-09T01:20:00.441Z,96.4
2023-01-09T01:21:00.459Z,96.4
2023-01-09T01:22:00.438Z,96.4
2023-01-09T01:23:00.462Z,96.4
2023-01-09T01:24:00.458Z,96.4
2023-01-09T01:25:00.426Z,96.4
2023-01-09T01:26:00.432Z,96.4
2023-01-09T01:27:00.451Z,96.4
2023-01-09T01:28:00.459Z,96.4
2023-01-09T01:29:00.462Z,96.4
2023-01-09T01:30:00.455Z,96.4
2023-01-09T01:31:00.539Z,96.4
2023-01-09T01:32:00.442Z,96.4
2023-01-09T01:33:00.459Z,96.4
2023-01-09T01:34:00.449Z,96.4
2023-01-09T01:35:00.453Z,96.4
2023-01-09T01:36:00.461Z,96.4
2023-01-09T01:37:00.465Z,96.4
2023-01-09T01:38:00.461Z,96.4
2023-01-09T01:39:00.449Z,96.4
2023-01-09T01:40:00.443Z,96.1
2023-01-09T01:41:00.462Z,96.4
2023-01-09T01:42:00.453Z,96.4
2023-01-09T01:43:00.476Z,96.4
2023-01-09T01:44:00.473Z,96.4
2023-01-09T01:45:00.481Z,96.4
2023-01-09T01:46:00.515Z,96.4
2023-01-09T01:47:00.457Z,96.4
2023-01-09T01:48:00.473Z,96.4
2023-01-09T01:49:00.452Z,96.4
2023-01-09T01:50:00.456Z,96.4
2023-01-09T01:51:00.476Z,96.7
2023-01-09T01:52:00.451Z,96.4
2023-01-09T01:53:00.473Z,96.7
2023-01-09T01:54:00.487Z,96.4
2023-01-09T01:55:00.454Z,96.7
2023-01-09T01:56:00.487Z,96.7
2023-01-09T01:57:00.465Z,96.7
2023-01-09T01:58:00.486Z,96.7
2023-01-09T01:59:00.468Z,96.7
2023-01-09T02:00:00.463Z,96.7
2023-01-09T02:01:00.704Z,96.7
2023-01-09T02:02:00.676Z,96.7
2023-01-09T02:03:00.503Z,96.7
2023-01-09T02:04:00.483Z,96.7
2023-01-09T02:05:00.477Z,96.7
2023-01-09T02:06:00.500Z,96.7
2023-01-09T02:07:00.492Z,96.7
2023-01-09T02:08:00.529Z,96.7
2023-01-09T02:09:00.494Z,96.7
2023-01-09T02:10:00.477Z,96.7
2023-01-09T02:11:00.484Z,96.7
2023-01-09T02:12:00.479Z,96.7
2023-01-09T02:13:00.512Z,96.7
2023-01-09T02:14:00.503Z,97
2023-01-09T02:15:00.480Z,96.7
2023-01-09T02:16:00.536Z,96.7
2023-01-09T02:17:00.483Z,96.7
2023-01-09T02:18:00.502Z,97
2023-01-09T02:19:00.505Z,97
2023-01-09T02:20:00.514Z,97
2023-01-09T02:21:00.516Z,97
2023-01-09T02:22:00.502Z,97
2023-01-09T02:23:00.530Z,97
2023-01-09T02:24:00.528Z,97
2023-01-09T02:25:00.525Z,97
2023-01-09T02:26:00.494Z,97
2023-01-09T02:27:00.859Z,97
2023-01-09T02:28:00.498Z,97
2023-01-09T02:29:00.516Z,97
2023-01-09T02:30:00.513Z,97
2023-01-09T02:31:00.507Z,97
2023-01-09T02:32:00.518Z,97
2023-01-09T02:33:00.520Z,97
2023-01-09T02:34:00.543Z,97
2023-01-09T02:35:00.520Z,97
2023-01-09T02:36:00.530Z,97
2023-01-09T02:37:00.504Z,97
2023-01-09T02:38:00.513Z,97
2023-01-09T02:39:00.526Z,97
2023-01-09T02:40:00.517Z,97
2023-01-09T02:41:00.507Z,97
2023-01-09T02:42:00.511Z,97
2023-01-09T02:43:00.514Z,97
2023-01-09T02:44:00.523Z,97
2023-01-09T02:45:00.524Z,97
2023-01-09T02:46:00.627Z,97
2023-01-09T02:47:00.514Z,97
2023-01-09T02:48:00.515Z,97
2023-01-09T02:49:00.539Z,97
2023-01-09T02:50:00.543Z,97
2023-01-09T02:51:00.552Z,97
2023-01-09T02:52:00.518Z,97
2023-01-09T02:53:00.463Z,96.7
2023-01-09T02:54:00.460Z,96.7
2023-01-09T02:55:00.545Z,96.7
2023-01-09T02:56:00.401Z,96.7
2023-01-09T02:57:00.343Z,96.4
2023-01-09T02:58:00.314Z,96.4
2023-01-09T02:59:00.285Z,96.4
2023-01-09T03:00:00.294Z,96.4
2023-01-09T03:01:02.245Z,96.4
2023-01-09T03:02:02.146Z,96.4
2023-01-09T03:03:02.136Z,96.4
2023-01-09T03:04:02.077Z,96.4
2023-01-09T03:05:02.163Z,96.4
2023-01-09T03:06:02.185Z,96.4
2023-01-09T03:07:02.109Z,96.4
2023-01-09T03:08:02.127Z,96.4
2023-01-09T03:09:02.098Z,96.4
2023-01-09T03:10:02.146Z,96.4
2023-01-09T03:11:02.138Z,96.4
2023-01-09T03:12:02.123Z,96.4
2023-01-09T03:13:02.173Z,96.4
2023-01-09T03:14:02.210Z,96.4
2023-01-09T03:15:02.269Z,96.3
2023-01-09T03:16:02.267Z,96.3
2023-01-09T03:17:02.205Z,96.4
2023-01-09T03:18:03.042Z,96.4
2023-01-09T03:19:02.255Z,96.4
2023-01-09T03:20:02.164Z,96.4
2023-01-09T03:21:02.254Z,96.4
2023-01-09T03:22:02.233Z,96.4
2023-01-09T03:23:02.194Z,96.4
2023-01-09T03:24:02.296Z,96.4
2023-01-09T03:25:02.263Z,96.4
2023-01-09T03:26:02.174Z,96.4
2023-01-09T03:27:02.194Z,96.4
2023-01-09T03:28:02.199Z,96.4
2023-01-09T03:29:02.121Z,96.1
2023-01-09T03:30:02.289Z,96.3
2023-01-09T03:31:02.167Z,96.4
2023-01-09T03:32:02.198Z,96.4
2023-01-09T03:33:02.132Z,96
2023-01-09T03:34:02.177Z,96.1
2023-01-09T03:35:02.163Z,96.1
2023-01-09T03:36:02.103Z,95.7
2023-01-09T03:37:02.184Z,95.7
2023-01-09T03:38:02.106Z,95.7
2023-01-09T03:39:02.098Z,95.7
2023-01-09T03:40:02.134Z,95.4
2023-01-09T03:41:02.114Z,95.4
2023-01-09T03:42:02.177Z,95.7
2023-01-09T03:43:02.109Z,95.4
2023-01-09T03:44:02.097Z,95.4
2023-01-09T03:45:02.128Z,95.1
2023-01-09T03:46:02.187Z,95.1
2023-01-09T03:47:02.094Z,95.1
2023-01-09T03:48:02.122Z,95.1
2023-01-09T03:49:02.126Z,95.1
2023-01-09T03:50:02.115Z,95.1
2023-01-09T03:51:02.104Z,95.1
2023-01-09T03:52:02.131Z,95.1
2023-01-09T03:53:02.110Z,95.1
2023-01-09T03:54:02.107Z,95.1
2023-01-09T03:55:02.121Z,94.8
2023-01-09T03:56:02.124Z,95.1
2023-01-09T03:57:02.105Z,95.1
2023-01-09T03:58:02.132Z,94.8
2023-01-09T03:59:02.125Z,94.8
2023-01-09T04:00:02.173Z,94.7
2023-01-09T04:01:02.239Z,94.7
2023-01-09T04:02:03.922Z,94.7
2023-01-09T04:05:02.460Z,94.7
2023-01-09T04:06:02.432Z,94.4
2023-01-09T04:07:02.413Z,95
2023-01-09T04:08:02.416Z,94.7
2023-01-09T04:09:02.420Z,95
2023-01-09T04:10:02.472Z,95
2023-01-09T04:11:02.447Z,95
2023-01-09T04:12:02.426Z,95
2023-01-09T04:13:02.426Z,95
2023-01-09T04:14:02.435Z,95
2023-01-09T04:15:02.450Z,95
2023-01-09T04:16:02.522Z,95
2023-01-09T04:17:02.428Z,95
2023-01-09T04:18:02.421Z,95
2023-01-09T04:19:02.421Z,95
2023-01-09T04:20:02.470Z,95
2023-01-09T04:21:02.446Z,95
2023-01-09T04:22:02.456Z,95
2023-01-09T04:23:02.426Z,95
2023-01-09T04:24:02.426Z,95
2023-01-09T04:25:02.462Z,95
2023-01-09T04:26:02.452Z,95.3
2023-01-09T04:27:02.444Z,95
2023-01-09T04:28:02.454Z,95
2023-01-09T04:29:02.452Z,95
2023-01-09T04:30:02.470Z,95
2023-01-09T04:31:02.450Z,95
2023-01-09T04:32:02.461Z,95.3
2023-01-09T04:33:02.453Z,95
2023-01-09T04:34:02.450Z,95
2023-01-09T04:35:02.464Z,95
2023-01-09T04:36:02.463Z,95
2023-01-09T04:37:02.477Z,95
2023-01-09T04:38:02.453Z,95
2023-01-09T04:39:02.461Z,95
2023-01-09T04:40:02.479Z,95
2023-01-09T04:41:02.476Z,95
2023-01-09T04:42:02.476Z,95
2023-01-09T04:43:02.487Z,95
2023-01-09T04:44:02.458Z,95
2023-01-09T04:45:02.483Z,95
2023-01-09T04:46:02.514Z,95
2023-01-09T04:47:02.472Z,95
2023-01-09T04:48:02.466Z,95
2023-01-09T04:49:02.489Z,95
2023-01-09T04:50:02.511Z,95
2023-01-09T04:51:02.485Z,95
2023-01-09T04:52:02.481Z,95.3
2023-01-09T04:53:02.499Z,95.3
2023-01-09T04:54:02.474Z,95.3
2023-01-09T04:55:02.492Z,95
2023-01-09T04:56:02.510Z,95.3
2023-01-09T04:57:02.482Z,95.3
2023-01-09T04:58:02.496Z,95.3
2023-01-09T04:59:02.483Z,95.3
2023-01-09T05:00:02.488Z,95.3
2023-01-09T05:01:02.585Z,95.3
2023-01-09T05:02:02.640Z,95.6
2023-01-09T05:03:02.497Z,95.3
2023-01-09T05:04:02.509Z,95.6
2023-01-09T05:05:02.471Z,95.6
2023-01-09T05:06:02.475Z,95.2
2023-01-09T05:07:02.485Z,95.3
2023-01-09T05:08:02.503Z,95.3
2023-01-09T05:09:02.498Z,95
2023-01-09T05:10:02.507Z,94.9
2023-01-09T05:11:02.529Z,95.3
2023-01-09T05:12:02.479Z,94.9
2023-01-09T05:13:02.494Z,94.9
2023-01-09T05:14:02.494Z,94.9
2023-01-09T05:15:02.506Z,94.9
2023-01-09T05:16:02.507Z,94.9
2023-01-09T05:17:02.494Z,94.9
2023-01-09T05:18:02.520Z,94.9
2023-01-09T05:19:02.487Z,94.9
2023-01-09T05:20:02.487Z,94.9
2023-01-09T05:21:02.509Z,94.6
2023-01-09T05:22:02.487Z,94.3
2023-01-09T05:23:02.523Z,94.3
2023-01-09T05:24:02.528Z,94.3
2023-01-09T05:25:02.505Z,94.2
2023-01-09T05:26:02.520Z,94.2
2023-01-09T05:27:02.508Z,93.9
2023-01-09T05:28:02.525Z,93.6
2023-01-09T05:29:02.494Z,93.6
2023-01-09T05:30:02.511Z,93.6
2023-01-09T05:31:02.517Z,93.6
2023-01-09T05:32:02.523Z,93.3
2023-01-09T05:33:02.529Z,93.3
2023-01-09T05:34:02.504Z,93.3
2023-01-09T05:35:02.504Z,93.3
2023-01-09T05:36:02.538Z,93.6
2023-01-09T05:37:02.515Z,93.6
2023-01-09T05:38:02.540Z,93.6
2023-01-09T05:39:02.511Z,93.3
2023-01-09T05:40:02.524Z,93.2
2023-01-09T05:41:02.528Z,92.9
2023-01-09T05:42:02.525Z,92.9
2023-01-09T05:43:02.539Z,92.9
2023-01-09T05:44:02.544Z,93.2
2023-01-09T05:45:02.518Z,93.2
2023-01-09T05:46:02.547Z,93.2
2023-01-09T05:47:02.995Z,93.5
2023-01-09T05:48:02.536Z,93.2
2023-01-09T05:49:02.516Z,93.5
2023-01-09T05:50:02.531Z,93.5
2023-01-09T05:51:02.536Z,93.5
2023-01-09T05:52:02.529Z,93.2
2023-01-09T05:53:02.539Z,93.2
2023-01-09T05:54:02.527Z,93.5
2023-01-09T05:55:02.526Z,93.5
2023-01-09T05:56:02.546Z,93.2
2023-01-09T05:57:02.533Z,93.2
2023-01-09T05:58:02.555Z,93.2
2023-01-09T05:59:02.525Z,93.2
2023-01-09T06:00:02.581Z,92.8
2023-01-09T06:01:02.578Z,93.1
2023-01-09T06:02:02.534Z,92.8
2023-01-09T06:03:02.596Z,92.8
2023-01-09T06:04:02.545Z,92.5
2023-01-09T06:05:02.586Z,92.5
2023-01-09T06:06:02.555Z,92.8
2023-01-09T06:07:02.556Z,92.8
2023-01-09T06:08:02.556Z,92.8
2023-01-09T06:09:02.536Z,92.8
2023-01-09T06:10:02.559Z,92.8
2023-01-09T06:11:02.539Z,92.8
2023-01-09T06:12:02.539Z,92.5
2023-01-09T06:13:02.575Z,92.8
2023-01-09T06:14:02.599Z,92.5
2023-01-09T06:15:02.550Z,92.5
2023-01-09T06:16:02.664Z,92.5
2023-01-09T06:17:02.575Z,92.5
2023-01-09T06:18:02.573Z,92.8
2023-01-09T06:19:02.555Z,92.7
2023-01-09T06:20:02.577Z,92.8
2023-01-09T06:21:02.571Z,92.8
2023-01-09T06:22:02.567Z,92.8
2023-01-09T06:23:02.561Z,92.4
2023-01-09T06:24:02.575Z,92.7
2023-01-09T06:25:02.569Z,92.7
2023-01-09T06:26:02.580Z,92.8
2023-01-09T06:27:02.559Z,92.8
2023-01-09T06:28:02.564Z,92.7
2023-01-09T06:29:02.560Z,92.7
2023-01-09T06:30:02.651Z,92.7
2023-01-09T06:31:02.662Z,92.7
2023-01-09T06:32:02.569Z,93.1
2023-01-09T06:33:02.612Z,93
2023-01-09T06:34:02.564Z,93
2023-01-09T06:35:02.586Z,93.1
2023-01-09T06:36:02.591Z,92.7
2023-01-09T06:37:02.563Z,93
2023-01-09T06:38:02.571Z,92.7
2023-01-09T06:39:02.570Z,92.7
2023-01-09T06:40:02.568Z,92.7
2023-01-09T06:41:02.584Z,93
2023-01-09T06:42:02.580Z,93
2023-01-09T06:43:02.571Z,93
2023-01-09T06:44:02.586Z,93
2023-01-09T06:45:02.594Z,92.7
2023-01-09T06:46:02.641Z,92.7
2023-01-09T06:47:02.576Z,92.7
2023-01-09T06:48:02.600Z,92.7
2023-01-09T06:49:02.575Z,92.4
2023-01-09T06:50:02.596Z,92.7
2023-01-09T06:51:02.603Z,92.7
2023-01-09T06:52:02.580Z,92.7
2023-01-09T06:53:02.584Z,92.7
2023-01-09T06:54:02.598Z,92.7
2023-01-09T06:55:02.600Z,92.4
2023-01-09T06:56:02.605Z,92
2023-01-09T06:57:02.603Z,92.1
2023-01-09T06:58:02.588Z,92
2023-01-09T06:59:02.771Z,92.1
2023-01-09T07:00:02.609Z,92
2023-01-09T07:01:02.826Z,92
2023-01-09T07:02:02.625Z,92.1
2023-01-09T07:03:02.634Z,92.1
2023-01-09T07:04:02.669Z,92.1
2023-01-09T07:05:02.611Z,92
2023-01-09T07:06:02.790Z,92.1
2023-01-09T07:07:02.604Z,91.7
2023-01-09T07:08:02.663Z,92
2023-01-09T07:09:02.724Z,92
2023-01-09T07:10:02.736Z,92
2023-01-09T07:11:02.707Z,92.1
2023-01-09T07:12:02.625Z,92
2023-01-09T07:13:02.710Z,92.1
2023-01-09T07:14:02.711Z,92
2023-01-09T07:15:02.757Z,91.7
2023-01-09T07:16:02.749Z,91.7
2023-01-09T07:17:02.718Z,91.7
2023-01-09T07:18:02.720Z,92
2023-01-09T07:19:02.698Z,92
2023-01-09T07:20:02.698Z,92
2023-01-09T07:21:02.733Z,92
2023-01-09T07:22:02.790Z,92
2023-01-09T07:23:02.731Z,92
2023-01-09T07:24:02.770Z,92
2023-01-09T07:25:02.764Z,92
2023-01-09T07:26:03.606Z,92
2023-01-09T07:27:02.800Z,92
2023-01-09T07:28:02.785Z,92
2023-01-09T07:29:02.800Z,92
2023-01-09T07:30:02.724Z,92
2023-01-09T07:31:02.829Z,92.3
2023-01-09T07:32:02.679Z,92.3
2023-01-09T07:33:04.107Z,92.7
2023-01-09T07:34:02.744Z,92.4
2023-01-09T07:35:02.719Z,92.4
2023-01-09T07:36:02.660Z,92.7
2023-01-09T07:37:02.687Z,92.7
2023-01-09T07:38:02.633Z,92.7
2023-01-09T07:39:02.672Z,92.7
2023-01-09T07:40:02.715Z,92.7
2023-01-09T07:41:02.632Z,92.7
2023-01-09T07:42:02.701Z,92.7
2023-01-09T07:43:02.639Z,92.7
2023-01-09T07:44:02.651Z,92.7
2023-01-09T07:45:02.695Z,92.7
2023-01-09T07:46:02.711Z,92.7
2023-01-09T07:47:02.635Z,92.7
2023-01-09T07:48:02.789Z,92.7
2023-01-09T07:49:02.647Z,92.7
2023-01-09T07:50:02.683Z,92.7
2023-01-09T07:51:02.638Z,92.7
2023-01-09T07:52:02.652Z,93
2023-01-09T07:53:02.645Z,93
2023-01-09T07:54:02.639Z,93
2023-01-09T07:55:02.687Z,93
2023-01-09T07:56:02.661Z,93
2023-01-09T07:57:02.648Z,93
2023-01-09T07:58:02.642Z,93
2023-01-09T07:59:02.666Z,93
2023-01-09T08:00:02.699Z,92.7
2023-01-09T08:01:02.729Z,92.6
2023-01-09T08:02:02.729Z,92.7
2023-01-09T08:03:02.784Z,92.7
2023-01-09T08:04:02.650Z,92.7
2023-01-09T08:05:02.693Z,92.7
2023-01-09T08:06:02.651Z,92.7
2023-01-09T08:07:02.655Z,92.7
2023-01-09T08:08:02.683Z,92.7
2023-01-09T08:09:02.659Z,92.7
2023-01-09T08:10:02.683Z,92.7
2023-01-09T08:11:02.662Z,92.6
2023-01-09T08:12:02.671Z,92.7
2023-01-09T08:13:02.656Z,92.4
2023-01-09T08:14:02.677Z,92.3
2023-01-09T08:15:02.685Z,92.3
2023-01-09T08:16:02.714Z,92
2023-01-09T08:17:02.657Z,92.1
2023-01-09T08:18:02.683Z,92.4
2023-01-09T08:19:02.696Z,92.4
2023-01-09T08:20:02.693Z,92.4
2023-01-09T08:21:02.672Z,92.7
2023-01-09T08:22:02.678Z,92.3
2023-01-09T08:23:02.676Z,92.6
2023-01-09T08:24:02.697Z,92.7
2023-01-09T08:25:02.706Z,92.7
2023-01-09T08:26:02.701Z,92.6
2023-01-09T08:27:02.693Z,93
2023-01-09T08:28:02.712Z,93.3
2023-01-09T08:29:02.679Z,93.6
2023-01-09T08:30:02.703Z,93.9
2023-01-09T08:31:02.838Z,93.6
2023-01-09T08:32:02.686Z,93.9
2023-01-09T08:33:02.676Z,93.9
2023-01-09T08:34:02.689Z,93.9
2023-01-09T08:35:02.781Z,93.9
2023-01-09T08:36:02.736Z,93.9
2023-01-09T08:37:02.694Z,93.9
2023-01-09T08:38:02.687Z,93.9
2023-01-09T08:39:02.708Z,93.9
2023-01-09T08:40:02.735Z,94.2
2023-01-09T08:41:02.689Z,94.2
2023-01-09T08:42:02.698Z,94.6
2023-01-09T08:43:02.712Z,94.6
2023-01-09T08:44:02.687Z,94.6
2023-01-09T08:45:02.723Z,93.9
2023-01-09T08:46:02.753Z,94.2
2023-01-09T08:47:02.692Z,94
2023-01-09T08:48:02.705Z,94
2023-01-09T08:49:02.699Z,94
2023-01-09T08:50:02.719Z,94.3
2023-01-09T08:51:02.697Z,94.3
2023-01-09T08:52:02.716Z,94.3
2023-01-09T08:53:00.556Z,94.3
2023-01-09T08:54:00.537Z,94.3
2023-01-09T08:55:00.519Z,94
2023-01-09T08:56:00.539Z,94
2023-01-09T08:57:00.512Z,94
2023-01-09T08:58:00.533Z,94
2023-01-09T08:59:00.514Z,94
2023-01-09T09:00:00.519Z,94
2023-01-09T09:01:00.551Z,94
2023-01-09T09:02:00.585Z,94
2023-01-09T09:03:00.611Z,94
2023-01-09T09:04:00.538Z,94
2023-01-09T09:05:00.528Z,94
2023-01-09T09:06:00.556Z,94
2023-01-09T09:07:00.603Z,93.7
2023-01-09T09:08:00.550Z,93.7
2023-01-09T09:09:00.555Z,93.7
2023-01-09T09:10:00.550Z,93.5
2023-01-09T09:11:00.549Z,93.7
2023-01-09T09:12:00.528Z,93.7
2023-01-09T09:13:00.578Z,93.7
2023-01-09T09:14:00.552Z,93.4
2023-01-09T09:15:00.539Z,93.4
2023-01-09T09:16:00.645Z,93.4
2023-01-09T09:17:00.572Z,93.4
2023-01-09T09:18:00.581Z,93.4
2023-01-09T09:19:00.561Z,93.4
2023-01-09T09:20:00.563Z,93.4
2023-01-09T09:21:00.561Z,93.4
2023-01-09T09:22:00.546Z,93.4
2023-01-09T09:23:00.549Z,93.4
2023-01-09T09:24:00.557Z,93.5
2023-01-09T09:25:00.567Z,93.4
2023-01-09T09:26:00.586Z,93.4
2023-01-09T09:27:00.546Z,93.4
2023-01-09T09:28:00.548Z,93.5
2023-01-09T09:29:00.571Z,93.5
2023-01-09T09:30:00.587Z,93.5
2023-01-09T09:31:00.618Z,93.2
2023-01-09T09:32:01.035Z,93.2
2023-01-09T09:33:00.575Z,93.5
2023-01-09T09:34:00.575Z,93.5
2023-01-09T09:35:00.572Z,92.9
2023-01-09T09:36:00.578Z,92.6
2023-01-09T09:37:00.596Z,92.3
2023-01-09T09:38:02.551Z,92.3
2023-01-09T09:39:00.575Z,92.3
2023-01-09T09:40:09.833Z,92.6
2023-01-09T09:41:00.566Z,92.3
2023-01-09T09:42:00.578Z,92.3
2023-01-09T09:43:00.567Z,92.3
2023-01-09T09:44:00.586Z,91.7
2023-01-09T09:45:00.596Z,91.7
2023-01-09T09:46:00.584Z,91.7
2023-01-09T09:47:00.589Z,91.7
2023-01-09T09:48:00.580Z,91.7
2023-01-09T09:49:00.587Z,91.7
2023-01-09T09:50:00.585Z,91.1
2023-01-09T09:51:00.591Z,91.4
2023-01-09T09:52:00.589Z,91.1
2023-01-09T09:53:00.582Z,91.1
2023-01-09T09:54:00.601Z,91.1
2023-01-09T09:55:00.578Z,91.1
2023-01-09T09:56:00.588Z,91.4
2023-01-09T09:57:00.607Z,91.1
2023-01-09T09:58:00.583Z,91.1
2023-01-09T09:59:00.621Z,90.5
2023-01-09T10:00:00.591Z,90.5
2023-01-09T10:01:00.597Z,90.8
2023-01-09T10:02:00.667Z,91.1
2023-01-09T10:03:00.626Z,90.5
2023-01-09T10:04:00.725Z,90.5
2023-01-09T10:05:00.587Z,90.5
2023-01-09T10:06:00.609Z,90.2
2023-01-09T10:07:00.591Z,89.6
2023-01-09T10:08:11.594Z,89.6
2023-01-09T10:09:00.613Z,89.6
2023-01-09T10:10:00.603Z,89.6
2023-01-09T10:11:00.605Z,89.6
2023-01-09T10:12:00.615Z,89.9
2023-01-09T10:13:00.605Z,89.6
2023-01-09T10:14:00.635Z,89.9
2023-01-09T10:15:00.606Z,89.9
2023-01-09T10:16:00.673Z,89.6
2023-01-09T10:17:00.612Z,89.6
2023-01-09T10:18:00.602Z,89.3
2023-01-09T10:19:00.623Z,89.3
2023-01-09T10:20:00.621Z,89.3
2023-01-09T10:21:00.628Z,89.9
2023-01-09T10:22:00.644Z,89.9
2023-01-09T10:23:00.640Z,89.9
2023-01-09T10:24:00.621Z,89.9
2023-01-09T10:25:00.651Z,90
2023-01-09T10:26:00.665Z,90.6
2023-01-09T10:27:00.619Z,90.3
2023-01-09T10:28:00.612Z,90
2023-01-09T10:29:00.642Z,90
2023-01-09T10:30:00.630Z,89.4
2023-01-09T10:31:00.761Z,89.1
2023-01-09T10:32:00.639Z,88.8
2023-01-09T10:33:00.614Z,88.1
2023-01-09T10:34:00.643Z,88.1
2023-01-09T10:35:00.627Z,88.7
2023-01-09T10:36:00.648Z,88.4
2023-01-09T10:37:00.759Z,88.1
2023-01-09T10:38:00.621Z,88.1
2023-01-09T10:39:00.688Z,88.1
2023-01-09T10:40:00.654Z,87.5
2023-01-09T10:41:01.890Z,88.1
2023-01-09T10:42:00.625Z,88.1
2023-01-09T10:43:00.639Z,88.1
2023-01-09T10:44:00.644Z,88.1
2023-01-09T10:45:00.650Z,88.1
2023-01-09T10:46:00.629Z,88.1
2023-01-09T10:47:00.703Z,88.1
2023-01-09T10:48:00.639Z,87.8
2023-01-09T10:49:00.656Z,88.1
2023-01-09T10:50:00.679Z,88.7
2023-01-09T10:51:00.646Z,88.7
2023-01-09T10:52:00.636Z,88.7
2023-01-09T10:53:00.647Z,88.7
2023-01-09T10:54:00.666Z,89
2023-01-09T10:55:00.656Z,88.7
2023-01-09T10:56:00.631Z,88.4
2023-01-09T10:57:00.637Z,87.8
2023-01-09T10:58:00.638Z,88.1
2023-01-09T10:59:00.677Z,88.1
2023-01-09T11:00:00.726Z,88.7
2023-01-09T11:01:00.636Z,88.7
2023-01-09T11:02:00.705Z,88.7
2023-01-09T11:03:00.686Z,88.7
2023-01-09T11:04:00.687Z,88.7
2023-01-09T11:05:00.670Z,88.4
2023-01-09T11:06:00.673Z,88.4
2023-01-09T11:07:00.661Z,88.4
2023-01-09T11:08:00.703Z,88.7
2023-01-09T11:09:00.669Z,88.8
2023-01-09T11:10:00.751Z,88.8
2023-01-09T11:11:00.789Z,88.7
2023-01-09T11:12:00.657Z,88.1
2023-01-09T11:13:00.740Z,88.1
2023-01-09T11:14:00.753Z,88.1
2023-01-09T11:15:00.726Z,88.8
2023-01-09T11:16:00.817Z,88.8
2023-01-09T11:17:00.751Z,88.8
2023-01-09T11:18:00.752Z,88.5
2023-01-09T11:19:00.762Z,88.2
2023-01-09T11:20:00.802Z,88.2
2023-01-09T11:21:00.799Z,88.5
2023-01-09T11:22:00.735Z,88.2
2023-01-09T11:23:00.776Z,87.6
2023-01-09T11:24:00.791Z,87.9
2023-01-09T11:25:00.821Z,87.3
2023-01-09T11:26:00.867Z,86.9
2023-01-09T11:27:00.880Z,87.6
2023-01-09T11:28:00.872Z,87
2023-01-09T11:29:00.794Z,87.3
2023-01-09T11:30:00.761Z,87
2023-01-09T11:31:01.017Z,85.7
2023-01-09T11:32:00.787Z,86.4
2023-01-09T11:33:00.866Z,86.4
2023-01-09T11:34:00.774Z,86.7
2023-01-09T11:35:00.752Z,86.4
2023-01-09T11:36:00.822Z,86.1
2023-01-09T11:37:00.837Z,86.4
2023-01-09T11:38:00.829Z,86.7
2023-01-09T11:39:00.772Z,86.4
2023-01-09T11:40:00.824Z,87
2023-01-09T11:41:00.838Z,87.1
2023-01-09T11:42:00.804Z,86.7
2023-01-09T11:43:00.770Z,85.8
2023-01-09T11:44:00.721Z,85.5
2023-01-09T11:45:00.808Z,84.6
2023-01-09T11:46:02.119Z,84.3
2023-01-09T11:47:00.794Z,84.9
2023-01-09T11:48:00.736Z,84.3
2023-01-09T11:49:00.696Z,84
2023-01-09T11:50:00.751Z,83.9
2023-01-09T11:51:00.703Z,83.9
2023-01-09T11:52:00.708Z,83.9
2023-01-09T11:53:00.687Z,84
2023-01-09T11:54:00.701Z,83.3
2023-01-09T11:55:00.743Z,84.6
2023-01-09T11:56:00.694Z,83.9
2023-01-09T11:57:00.711Z,84.6
2023-01-09T11:58:00.703Z,84.6
2023-01-09T11:59:00.694Z,84.6
2023-01-09T12:00:00.747Z,84.9
2023-01-09T12:01:00.699Z,85.2
2023-01-09T12:02:00.806Z,84.9
2023-01-09T12:03:00.725Z,85.2
2023-01-09T12:04:00.701Z,85.2
2023-01-09T12:05:00.722Z,84.9
2023-01-09T12:06:00.705Z,84.6
2023-01-09T12:07:00.742Z,84.9
2023-01-09T12:08:00.709Z,84.3
2023-01-09T12:09:00.721Z,84.6
2023-01-09T12:10:00.747Z,84.6
2023-01-09T12:11:00.736Z,84.6
2023-01-09T12:12:00.729Z,84.9
2023-01-09T12:13:00.718Z,85.5
2023-01-09T12:14:00.751Z,86.4
2023-01-09T12:15:00.766Z,86.1
2023-01-09T12:16:00.781Z,85.8
2023-01-09T12:17:00.733Z,85.8
2023-01-09T12:18:00.760Z,85.8
2023-01-09T12:19:00.759Z,85.8
2023-01-09T12:20:00.762Z,85.5
2023-01-09T12:21:00.722Z,86.1
2023-01-09T12:22:00.740Z,86.7
2023-01-09T12:23:00.719Z,86.4
2023-01-09T12:24:00.748Z,86.7
2023-01-09T12:25:00.767Z,86.4
2023-01-09T12:26:00.728Z,86.3
2023-01-09T12:27:00.744Z,86.7
2023-01-09T12:28:00.743Z,87
2023-01-09T12:29:00.755Z,87.3
2023-01-09T12:30:00.768Z,87.6
2023-01-09T12:31:00.746Z,87.9
2023-01-09T12:32:00.814Z,87.9
2023-01-09T12:33:00.751Z,88.2
2023-01-09T12:34:00.753Z,87.6
2023-01-09T12:35:00.766Z,87.6
2023-01-09T12:36:00.734Z,87.6
2023-01-09T12:37:00.787Z,88.2
2023-01-09T12:38:00.736Z,87.9
2023-01-09T12:39:00.759Z,88.2
2023-01-09T12:40:00.793Z,87.9
2023-01-09T12:41:00.738Z,88.2
2023-01-09T12:42:00.757Z,88.2
2023-01-09T12:43:00.751Z,88.2
2023-01-09T12:44:00.778Z,88.5
2023-01-09T12:45:00.763Z,88.5
2023-01-09T12:46:00.784Z,88.5
2023-01-09T12:47:00.767Z,88.8
2023-01-09T12:48:00.767Z,89.1
2023-01-09T12:49:00.761Z,89.4
2023-01-09T12:50:00.790Z,89.4
2023-01-09T12:51:00.774Z,88.8
2023-01-09T12:52:00.767Z,89.1
2023-01-09T12:53:00.768Z,88.5
2023-01-09T12:54:00.766Z,88.5
2023-01-09T12:55:00.780Z,88.6
2023-01-09T12:56:00.767Z,87.9
2023-01-09T12:57:00.786Z,88.2
2023-01-09T12:58:00.766Z,88.9
2023-01-09T12:59:00.781Z,88.6
2023-01-09T13:00:00.779Z,87.6
2023-01-09T13:01:00.847Z,87.7
2023-01-09T13:02:00.866Z,87.7
2023-01-09T13:03:12.032Z,87
2023-01-09T13:04:00.787Z,87.6
2023-01-09T13:05:00.771Z,87.7
2023-01-09T13:06:00.797Z,87.6
2023-01-09T13:07:00.793Z,87.6
2023-01-09T13:08:00.784Z,87.9
2023-01-09T13:09:00.784Z,88.3
2023-01-09T13:10:00.813Z,87.9
2023-01-09T13:11:08.590Z,87.6
2023-01-09T13:12:00.780Z,87.3
2023-01-09T13:13:00.795Z,87.6
2023-01-09T13:14:00.789Z,87.3
2023-01-09T13:15:00.783Z,87.7
2023-01-09T13:16:00.911Z,86.4
2023-01-09T13:17:00.810Z,87
2023-01-09T13:18:00.796Z,87
2023-01-09T13:19:00.796Z,87.3
2023-01-09T13:20:00.798Z,87
2023-01-09T13:21:00.813Z,87
2023-01-09T13:22:00.788Z,87.4
2023-01-09T13:23:00.804Z,87.7
2023-01-09T13:24:00.799Z,87
2023-01-09T13:25:00.800Z,87.1
2023-01-09T13:26:00.804Z,86.5
2023-01-09T13:27:00.797Z,86.7
2023-01-09T13:28:00.816Z,86.8
2023-01-09T13:29:00.892Z,86.1
2023-01-09T13:30:00.822Z,84.9